Weather observations for the past three days for
Sacramento Mather Airport
Imperial (Metric)
Date Time (pdt) Wind (mph) Vis. (mi.) Weather Sky Cond. Temperature (ºF) Relative Humidity Wind Chill (°F) Heat Index (°F) Pressure Precipitation (in)
Air Dwpt 6 hour altimeter (in) sea level (mb) 1 hr 3 hr 6 hr
Max. Min.
10 13:35 Vrbl 3 3.00 Fair with Haze CLR 80.6 60.8 51% 81 29.9 0.0
10 13:15 Vrbl 5 1.00 Light Drizzle CLR 80.6 60.8 51% 81 29.91 0.0
10 12:55 SW 8 5.00 Light Drizzle CLR 78.8 59 51% 80 29.91 0.0
10 12:35 Vrbl 5 9.00 Fair CLR 78.8 59 51% 80 29.92 0.0
10 12:15 W 6 1.25 Fair with Haze CLR 75.2 59 57% 78 29.93 0.0
10 11:55 SW 8 10.00 Fair CLR 75.2 59 57% 78 29.93 0.0
10 11:35 SW 6 G 13 10.00 Fair CLR 73.4 59 61% 29.93 0.0
10 11:15 Vrbl 7 9.00 Fair CLR 71.6 59 65% 29.93 0.0
10 10:50 S 9 10.00 Fair CLR 69.8 60.8 73% 29.93 0.0
10 10:35 SW 8 10.00 Fair CLR 69.8 60.8 73% 29.93 0.0
10 10:15 S 8 10.00 Fair CLR 69.8 60.8 73% 29.93 0.0
10 09:55 S 8 10.00 Fair CLR 69.8 62.6 78% 29.93 0.0
10 09:35 S 7 10.00 Fair CLR 66.2 60.8 83% 29.93 0.0
10 09:15 Vrbl 6 10.00 Fair CLR 64.4 60.8 88% 29.93 0.0
10 08:55 S 6 10.00 Fair CLR 62.6 59 88% 29.93 0.0
10 08:35 S 7 10.00 Fair CLR 60.8 59 94% 29.93 0.0
10 08:15 S 6 10.00 Fair CLR 59 59 100% 29.93 0.0
10 07:50 S 7 10.00 Fair CLR 57.2 57.2 100% 29.92 0.0
10 07:35 S 7 10.00 Fair CLR 57.2 57.2 100% 29.92 0.0
10 07:15 S 6 10.00 Fair CLR 57.2 57.2 100% 29.92 0.0
10 06:55 SE 5 10.00 Fair CLR 55.4 55.4 100% 29.91 0.0
10 06:35 SE 6 9.00 Fair CLR 53.6 53.6 100% 29.9 0.0
10 06:15 SE 7 9.00 Fair CLR 51.8 51.8 100% 29.9 0.0
10 05:55 S 6 9.00 Fair CLR 51.8 51.8 100% 29.89 0.0
10 05:35 SE 6 10.00 Fair CLR 51.8 51.8 100% 29.89 0.0
10 05:15 SE 5 10.00 Fair CLR 53.6 53.6 100% 29.89 0.0
10 04:55 Vrbl 3 10.00 Fair CLR 53.6 53.6 100% 29.89 0.0
10 04:35 S 6 10.00 Fair CLR 55.4 55.4 100% 29.89 0.0
10 04:15 SE 6 10.00 Fair CLR 53.6 53.6 100% 29.89 0.0
10 03:55 S 5 10.00 Fair CLR 55.4 55.4 100% 29.88 0.0
10 03:30 S 7 10.00 Fair CLR 57.2 57.2 100% 29.88 0.0
10 03:15 S 9 10.00 Fair CLR 57.2 57.2 100% 29.88 0.0
10 02:55 S 6 10.00 Fair CLR 57.2 57.2 100% 29.88 0.0
10 02:35 S 8 10.00 Fair CLR 57.2 57.2 100% 29.87 0.0
10 02:15 S 7 10.00 Fair CLR 57.2 57.2 100% 29.88 0.0
10 01:55 S 7 10.00 Fair CLR 57.2 57.2 100% 29.87 0.0
10 01:30 S 6 10.00 Fair CLR 55.4 55.4 100% 29.87 0.0
10 01:15 SE 6 10.00 Fair CLR 57.2 57.2 100% 29.87 0.0
10 00:55 SE 5 10.00 Fair CLR 57.2 57.2 100% 29.87 0.0
10 00:35 SE 5 10.00 Fair CLR 59 59 100% 29.87 0.0
10 00:15 S 9 10.00 Fair CLR 62.6 60.8 94% 29.87 0.0
09 23:55 S 10 10.00 Fair CLR 62.6 60.8 94% 29.87 0.0
09 23:35 S 9 10.00 Fair CLR 60.8 60.8 100% 29.87 0.0
09 23:15 SE 6 10.00 Fair CLR 62.6 62.6 100% 29.87 0.0
09 22:55 S 7 10.00 Fair CLR 64.4 62.6 94% 29.87 0.0
09 22:35 S 6 10.00 Fair CLR 64.4 62.6 94% 29.87 0.0
09 22:15 S 8 10.00 Fair CLR 64.4 64.4 100% 29.87 0.0
09 21:55 SE 8 10.00 Fair CLR 64.4 64.4 100% 29.86 0.0
09 21:35 SE 5 10.00 Fair CLR 66.2 59 78% 29.86 0.0
09 21:10 S 5 10.00 Fair CLR 68 57.2 69% 29.85 0.0
09 20:55 SW 9 10.00 Fair CLR 69.8 57.2 64% 29.84 0.0
09 20:35 SW 9 10.00 Fair CLR 69.8 59 69% 29.84 0.0
09 20:15 SW 8 10.00 Fair CLR 73.4 59 61% 29.83 0.0
09 19:55 SW 8 10.00 Fair CLR 75.2 60.8 61% 77 29.83 0.0
09 19:35 SW 9 10.00 Fair CLR 77 62.6 61% 79 29.82 0.0
09 19:15 SW 10 10.00 Fair CLR 78.8 60.8 54% 80 29.82 0.0
09 18:55 SW 13 10.00 Fair CLR 82.4 62.6 51% 83 29.82 0.0
09 18:35 SW 12 10.00 Fair CLR 84.2 62.6 48% 85 29.82 0.0
09 18:10 SW 13 10.00 Fair CLR 86 60.8 43% 86 29.82 0.0
09 17:55 SW 13 10.00 Fair CLR 87.8 60.8 40% 88 29.82 0.0
09 17:35 SW 10 10.00 Fair CLR 87.8 59 38% 87 29.82 0.0
09 17:15 S 12 10.00 Fair CLR 87.8 60.8 40% 88 29.82 0.0
09 16:55 W 10 4.00 Fair with Haze CLR 0 0 0% 29.83 0.0
09 16:35 Vrbl 6 G 13 3.00 Fair with Haze CLR 89.6 50 26% 87 29.83 0.0
09 16:15 NW 9 2.50 Fair with Haze CLR 89.6 50 26% 87 29.83 0.0
09 15:55 W 9 3.00 Fair with Haze CLR 89.6 51.8 27% 87 29.84 0.0
09 15:35 W 6 4.00 Fair with Haze CLR 87.8 51.8 29% 85 29.85 0.0
09 15:15 SW 8 3.00 Fair with Haze CLR 87.8 51.8 29% 85 29.86 0.0
09 14:55 Vrbl 5 G 14 9.00 Fair CLR 87.8 53.6 31% 86 29.86 0.0
09 14:35 Vrbl 3 G 14 10.00 Fair CLR 86 53.6 33% 84 29.87 0.0
09 14:15 Calm 10.00 Fair CLR 86 57.2 38% 85 29.87 0.0
09 13:55 W 7 10.00 Fair CLR 84.2 60.8 45% 84 29.88 0.0
09 13:35 W 6 10.00 Fair CLR 84.2 60.8 45% 84 29.89 0.0
09 13:15 W 7 9.00 Fair CLR 82.4 62.6 51% 83 29.89 0.0
09 12:55 Vrbl 3 10.00 Fair CLR 0 0 0% 29.9 0.0
09 12:35 NW 5 10.00 Fair CLR 80.6 62.6 54% 82 29.91 0.0
09 12:15 Vrbl 6 10.00 Fair CLR 78.8 62.6 58% 80 29.91 0.0
09 11:55 Calm 10.00 Fair CLR 77 60.8 57% 79 29.92 0.0
09 11:35 Calm 10.00 Fair CLR 0 0 0% 29.93 0.0
09 11:15 Vrbl 3 9.00 Fair CLR 77 64.4 65% 79 29.93 0.0
09 10:55 SW 7 10.00 Fair CLR 75.2 64.4 69% 77 29.93 0.0
09 10:35 Vrbl 5 10.00 Fair CLR 71.6 62.6 73% 29.93 0.0
09 10:15 Calm 10.00 Fair CLR 69.8 60.8 73% 29.94 0.0
09 09:55 Calm 10.00 Fair CLR 71.6 64.4 78% 29.94 0.0
09 09:35 Calm 10.00 Fair CLR 69.8 64.4 83% 29.94 0.0
09 09:15 Calm 10.00 Fair CLR 68 64.4 88% 29.94 0.0
09 08:55 Vrbl 3 10.00 Fair CLR 66.2 62.6 88% 29.94 0.0
09 08:35 Calm 10.00 Fair CLR 62.6 60.8 94% 29.94 0.0
09 08:15 S 5 10.00 Fair CLR 60.8 60.8 100% 29.94 0.0
09 07:55 S 5 10.00 Fair CLR 59 59 100% 29.94 0.0
09 07:30 SE 6 10.00 Fair CLR 59 59 100% 29.94 0.0
09 07:15 SE 5 10.00 Fair CLR 57.2 57.2 100% 29.94 0.0
09 06:55 SE 5 9.00 Fair CLR 55.4 55.4 100% 29.94 0.0
09 06:35 SE 5 10.00 Fair CLR 55.4 55.4 100% 29.93 0.0
09 06:15 E 5 10.00 Fair CLR 53.6 53.6 100% 29.93 0.0
09 05:55 Calm 10.00 Fair CLR 55.4 55.4 100% 29.93 0.0
09 05:35 Calm 10.00 Fair CLR 53.6 53.6 100% 29.92 0.0
09 05:15 S 5 10.00 Fair CLR 53.6 53.6 100% 29.92 0.0
09 04:30 S 6 10.00 Fair CLR 51.8 51.8 100% 29.92 0.0
09 04:15 SE 6 10.00 Fair CLR 53.6 53.6 100% 29.92 0.0
09 03:55 SE 6 10.00 Fair CLR 53.6 53.6 100% 29.92 0.0
09 03:35 SE 6 10.00 Fair CLR 53.6 53.6 100% 29.92 0.0
09 03:15 SE 7 10.00 Fair CLR 53.6 53.6 100% 29.92 0.0
09 02:55 SE 6 10.00 Fair CLR 53.6 53.6 100% 29.92 0.0
09 02:35 SE 5 10.00 Fair CLR 55.4 55.4 100% 29.93 0.0
09 02:15 SE 7 10.00 Fair CLR 55.4 55.4 100% 29.93 0.0
09 01:55 SE 5 10.00 Fair CLR 55.4 55.4 100% 29.93 0.0
09 01:30 Calm 10.00 Fair CLR 55.4 55.4 100% 29.93 0.0
09 01:15 SE 5 10.00 Fair CLR 57.2 57.2 100% 29.94 0.0
09 00:55 SE 5 10.00 Fair CLR 57.2 57.2 100% 29.94 0.0
09 00:35 S 5 10.00 Fair CLR 60.8 60.8 100% 29.94 0.0
09 00:15 S 7 10.00 Fair CLR 60.8 60.8 100% 29.93 0.0
08 23:55 S 6 10.00 Fair CLR 59 59 100% 29.93 0.0
08 23:35 SE 6 10.00 Fair CLR 59 59 100% 29.93 0.0
08 23:15 S 5 10.00 Fair CLR 60.8 60.8 100% 29.94 0.0
08 22:55 S 8 10.00 Fair CLR 60.8 60.8 100% 29.93 0.0
08 22:30 SE 6 10.00 Fair CLR 62.6 62.6 100% 29.93 0.0
08 22:15 S 6 9.00 Fair CLR 62.6 62.6 100% 29.93 0.0
08 21:55 S 5 10.00 Fair CLR 62.6 62.6 100% 29.93 0.0
08 21:35 SW 7 10.00 Fair CLR 66.2 64.4 94% 29.92 0.0
08 21:15 SW 8 10.00 Fair CLR 66.2 66.2 100% 29.92 0.0
08 20:55 SW 7 10.00 Fair CLR 68 66.2 94% 29.92 0.0
08 20:35 SW 7 10.00 Fair CLR 69.8 64.4 83% 29.91 0.0
08 20:15 SW 8 10.00 Fair CLR 71.6 64.4 78% 29.91 0.0
08 19:55 SW 9 10.00 Fair CLR 73.4 62.6 69% 29.91 0.0
08 19:30 SW 9 10.00 Fair CLR 77 62.6 61% 79 29.9 0.0
08 19:15 SW 10 10.00 Fair CLR 78.8 62.6 58% 80 29.9 0.0
08 18:55 SW 12 10.00 Fair CLR 80.6 62.6 54% 82 29.9 0.0
08 18:35 SW 13 10.00 Fair CLR 80.6 62.6 54% 82 29.9 0.0
08 18:15 SW 14 10.00 Fair CLR 82.4 62.6 51% 83 29.9 0.0
08 17:55 SW 12 10.00 Fair CLR 84.2 62.6 48% 85 29.9 0.0
08 17:35 SW 7 10.00 Fair CLR 0 0 0% 29.91 0.0
08 17:15 W 5 10.00 Fair CLR 86 55.4 35% 85 29.91 0.0
08 16:55 Calm 10.00 Fair CLR 86 57.2 38% 85 29.92 0.0
08 16:35 W 7 10.00 Fair CLR 86 57.2 38% 85 29.92 0.0
08 16:15 Vrbl 7 10.00 Fair CLR 86 57.2 38% 85 29.93 0.0
08 15:55 W 6 10.00 Fair CLR 84.2 57.2 40% 83 29.94 0.0
08 15:35 Vrbl 5 10.00 Fair CLR 84.2 59 43% 84 29.95 0.0
08 15:15 Calm 10.00 Fair CLR 82.4 59 45% 82 29.96 0.0
08 14:55 Calm 10.00 Fair CLR 82.4 59 45% 82 29.97 0.0
08 14:35 Vrbl 7 10.00 Fair CLR 82.4 59 45% 82 29.98 0.0
08 14:15 Vrbl 5 10.00 Fair CLR 80.6 59 48% 81 29.98 0.0
08 13:55 Calm 10.00 Fair CLR 80.6 59 48% 81 29.99 0.0
08 13:35 W 3 10.00 Fair CLR 78.8 59 51% 80 29.99 0.0
08 13:15 Calm 10.00 Fair CLR 77 60.8 57% 79 30 0.0
08 12:55 Vrbl 3 10.00 Fair CLR 77 60.8 57% 79 30.01 0.0
08 12:35 NW 3 10.00 Fair CLR 0 0 0% 30.01 0.0
08 12:10 SW 6 10.00 Fair CLR 75.2 62.6 65% 77 30.02 0.0
08 11:55 Vrbl 6 10.00 Fair CLR 73.4 62.6 69% 30.02 0.0
08 11:35 Vrbl 5 2.00 Fair with Haze CLR 71.6 60.8 69% 30.03 0.0
08 11:15 Vrbl 6 10.00 Fair CLR 69.8 60.8 73% 30.03 0.0
08 10:55 Calm 10.00 Fair CLR 68 62.6 83% 30.03 0.0
08 10:35 SW 5 10.00 Fair CLR 68 64.4 88% 30.04 0.0
08 10:15 Calm 10.00 Fair CLR 66.2 64.4 94% 30.04 0.0
08 09:55 SE 6 10.00 Mostly Cloudy BKN013 64.4 64.4 100% 30.04 0.0
08 09:35 Calm 10.00 Mostly Cloudy BKN009 BKN013 60.8 60.8 100% 30.04 0.0
08 09:15 Calm 10.00 Mostly Cloudy BKN008 57.2 57.2 100% 30.04 0.0
08 08:55 S 6 10.00 Overcast OVC007 57.2 57.2 100% 30.04 0.0
08 08:35 S 5 8.00 Overcast OVC007 57.2 57.2 100% 30.04 0.0
08 08:15 S 8 9.00 Overcast OVC007 55.4 55.4 100% 30.04 0.0
08 07:55 S 7 10.00 Mostly Cloudy BKN007 55.4 55.4 100% 30.04 0.0
08 07:30 SE 7 8.00 Fair CLR 55.4 55.4 100% 30.03 0.0
08 07:15 SE 6 7.00 Fair CLR 53.6 53.6 100% 30.02 0.0
08 06:55 SE 6 6.00 Fog/Mist CLR 51.8 51.8 100% 30.02 0.0
08 06:35 SE 7 5.00 Fog/Mist CLR 51.8 51.8 100% 30.01 0.0
08 06:15 SE 6 5.00 Fog/Mist CLR 50 50 100% 48 30.01 0.0
08 05:55 S 6 8.00 Fair CLR 51.8 51.8 100% 30.01 0.0
08 05:35 S 7 10.00 Fair CLR 51.8 51.8 100% 30 0.0
08 05:15 S 6 10.00 Fair CLR 51.8 51.8 100% 30 0.0
08 04:55 S 7 10.00 Fair CLR 51.8 51.8 100% 30 0.0
08 04:35 S 7 8.00 Fair CLR 51.8 51.8 100% 30 0.0
08 04:15 SE 6 6.00 Fog/Mist CLR 51.8 51.8 100% 30 0.0
08 03:55 SE 6 8.00 Fair CLR 51.8 51.8 100% 30 0.0
08 03:35 SE 7 10.00 Fair CLR 51.8 51.8 100% 30 0.0
08 03:10 S 6 10.00 Fair CLR 51.8 51.8 100% 30 0.0
08 02:55 SE 6 10.00 Fair CLR 51.8 51.8 100% 30 0.0
08 02:35 SE 7 10.00 Fair CLR 53.6 53.6 100% 29.99 0.0
08 02:15 SE 6 10.00 Fair CLR 53.6 53.6 100% 29.99 0.0
08 01:50 SE 6 10.00 Fair CLR 55.4 55.4 100% 29.99 0.0
08 01:35 S 7 10.00 Fair CLR 55.4 55.4 100% 29.99 0.0
08 01:15 S 7 10.00 Fair CLR 57.2 57.2 100% 29.99 0.0
08 00:55 S 7 10.00 Fair CLR 57.2 57.2 100% 29.99 0.0
08 00:10 S 7 10.00 Fair CLR 59 59 100% 29.98 0.0
07 23:55 S 9 10.00 Fair CLR 59 59 100% 29.98 0.0
07 23:35 S 7 10.00 Fair CLR 59 59 100% 29.98 0.0
07 23:15 S 7 10.00 Fair CLR 60.8 60.8 100% 29.98 0.0
07 22:55 S 8 10.00 Fair CLR 60.8 60.8 100% 29.98 0.0
07 22:35 SE 6 10.00 Fair CLR 59 59 100% 29.98 0.0
07 22:15 S 5 10.00 Fair CLR 60.8 60.8 100% 29.98 0.0
07 21:35 SW 8 10.00 Fair CLR 64.4 64.4 100% 29.96 0.0
07 21:10 SW 7 10.00 Fair CLR 64.4 64.4 100% 29.96 0.0
07 20:55 SW 6 10.00 Fair CLR 66.2 66.2 100% 29.95 0.0
07 20:35 SW 9 10.00 Fair CLR 68 66.2 94% 29.95 0.0
07 20:15 SW 6 G 13 10.00 Fair CLR 71.6 64.4 78% 29.94 0.0
07 19:55 SW 10 10.00 Fair CLR 73.4 64.4 74% 29.93 0.0
07 19:35 SW 9 10.00 Fair CLR 77 66.2 69% 79 29.93 0.0
07 19:15 SW 7 10.00 Fair CLR 80.6 66.2 62% 83 29.93 0.0
07 18:55 SW 7 10.00 Fair CLR 82.4 64.4 55% 84 29.93 0.0
07 18:35 S 8 10.00 Fair CLR 82.4 62.6 51% 83 29.93 0.0
07 18:10 S 9 10.00 Fair CLR 84.2 62.6 48% 85 29.93 0.0
07 17:55 SW 9 10.00 Fair CLR 84.2 62.6 48% 85 29.93 0.0
07 17:15 SW 5 10.00 Fair CLR 84.2 60.8 45% 84 29.94 0.0
07 16:55 S 6 10.00 Fair CLR 84.2 62.6 48% 85 29.94 0.0
07 16:35 Calm 10.00 Fair CLR 84.2 62.6 48% 85 29.94 0.0
07 16:15 SW 9 10.00 Fair CLR 84.2 62.6 48% 85 29.95 0.0
07 15:55 Calm 10.00 Fair CLR 82.4 60.8 48% 83 29.96 0.0
07 15:35 SW 7 10.00 Fair CLR 82.4 60.8 48% 83 29.97 0.0
07 15:15 Vrbl 3 10.00 Fair CLR 82.4 60.8 48% 83 29.98 0.0
07 14:55 SW 3 10.00 Fair CLR 82.4 60.8 48% 83 29.99 0.0
07 14:35 Calm 8.00 Fair CLR 80.6 60.8 51% 81 29.99 0.0
07 14:15 W 6 10.00 Fair CLR 80.6 60.8 51% 81 30 0.0
Date Time (pdt) Wind (mph) Vis. (mi.) Weather Sky Cond. Air Dwpt Max. Min. Relative Humidity Wind Chill (°F) Heat Index (°F) altimeter (in) sea level (mb) 1 hr 3 hr 6 hr
6 hour
Temperature (ºF) Pressure Precipitation (in)